Terminal Aerodrome Forecast
Issued by NWS Louisville, KY

Home | Current Version | Previous Version | Text Only | Print | Product List | Glossary On
Versions: 1 2 3 4 5 6 7 8 9 10 11 12 13 14
000
FTUS43 KLMK 141120
TAFSDF
TAF
KSDF 141120Z 1412/1518 32008KT P6SM BKN035
     FM141500 35005KT P6SM SCT110
     FM142200 36005KT P6SM BKN250
     FM151400 25004KT P6SM SCT200=

USA.gov is the U.S. government's official web portal to all federal, state and local government web resources and services.